Time;durP1;ratioP1;P1;durP2;ratioP2;P2;SDS_P1;SDS_P2;PMS_P1;PMS_P2;Temp;Humidity;BMP_temperature;BMP_pressure;BME280_temperature;BME280_humidity;BME280_pressure;Samples;Min_cycle;Max_cycle;Signal;HPM_P1;HPM_P2
2023/01/26 00:01:12;;;;;;;95.55;36.88;;;-0.40;99.90;;;;;;4975556;28;20042;-80
2023/01/26 00:03:38;;;;;;;98.15;37.75;;;-0.40;99.90;;;;;;5008558;28;20117;-79
2023/01/26 00:06:05;;;;;;;95.28;38.88;;;-0.40;99.90;;;;;;5008149;28;20100;-79
2023/01/26 00:08:36;;;;;;;96.82;36.67;;;-0.40;99.90;;;;;;5009199;28;20054;-79
2023/01/26 00:11:07;;;;;;;102.18;38.70;;;-0.40;99.90;;;;;;5009221;28;20074;-79
2023/01/26 00:13:33;;;;;;;105.45;39.38;;;-0.30;99.90;;;;;;5002033;28;20038;-79
2023/01/26 00:15:59;;;;;;;99.25;38.60;;;-0.30;99.90;;;;;;5002301;28;20038;-79
2023/01/26 00:18:24;;;;;;;105.03;38.08;;;-0.30;99.90;;;;;;5032461;28;20045;-81
2023/01/26 00:21:01;;;;;;;93.60;35.78;;;-0.30;99.90;;;;;;5012804;28;20048;-81
2023/01/26 00:23:28;;;;;;;95.65;36.97;;;-0.30;99.90;;;;;;5022247;28;20100;-81
2023/01/26 00:25:54;;;;;;;90.10;35.92;;;-0.30;99.90;;;;;;4987814;28;20046;-81
2023/01/26 00:28:20;;;;;;;101.97;36.85;;;-0.30;99.90;;;;;;5004650;28;20039;-81
2023/01/26 00:30:45;;;;;;;92.57;35.55;;;-0.30;99.90;;;;;;4995686;28;20069;-82
2023/01/26 00:33:11;;;;;;;100.93;37.50;;;-0.30;99.90;;;;;;4987688;28;20058;-82
2023/01/26 00:35:37;;;;;;;97.68;38.03;;;-0.30;99.90;;;;;;4989380;28;20046;-81
2023/01/26 00:38:03;;;;;;;104.72;37.15;;;-0.30;99.90;;;;;;5020683;28;20053;-81
2023/01/26 00:40:29;;;;;;;100.30;37.92;;;-0.30;99.90;;;;;;5013085;28;20081;-81
2023/01/26 00:42:55;;;;;;;97.38;35.92;;;-0.30;99.90;;;;;;5010885;28;20047;-81
2023/01/26 00:45:21;;;;;;;92.43;37.45;;;-0.30;99.90;;;;;;5011035;28;20100;-81
2023/01/26 00:47:46;;;;;;;100.80;37.33;;;-0.30;99.90;;;;;;5014144;28;20369;-81
2023/01/26 00:50:12;;;;;;;98.78;37.05;;;-0.40;99.90;;;;;;5012865;28;20513;-81
2023/01/26 00:52:38;;;;;;;102.45;37.60;;;-0.30;99.90;;;;;;5018322;28;20050;-81
2023/01/26 00:55:04;;;;;;;95.88;37.08;;;-0.40;99.90;;;;;;5009937;28;20125;-81
2023/01/26 00:57:30;;;;;;;101.32;37.33;;;-0.40;99.90;;;;;;5017487;28;20037;-81
2023/01/26 00:59:56;;;;;;;97.82;37.38;;;-0.40;99.90;;;;;;4998117;28;20129;-81
2023/01/26 01:02:21;;;;;;;111.35;39.22;;;-0.40;99.90;;;;;;4993745;28;20077;-82
2023/01/26 01:04:47;;;;;;;101.00;38.35;;;-0.40;99.90;;;;;;5011029;28;20800;-82
2023/01/26 01:07:13;;;;;;;93.00;37.28;;;-0.30;99.90;;;;;;5010000;28;20401;-82
2023/01/26 01:09:38;;;;;;;94.28;36.10;;;-0.40;99.90;;;;;;5007361;28;20132;-82
2023/01/26 01:12:04;;;;;;;98.82;37.67;;;-0.30;99.90;;;;;;5007551;28;20113;-81
2023/01/26 01:14:30;;;;;;;97.85;37.38;;;-0.30;99.90;;;;;;4991370;28;20045;-81
2023/01/26 01:16:55;;;;;;;100.45;37.38;;;-0.30;99.90;;;;;;4996859;28;20441;-81
2023/01/26 01:19:21;;;;;;;94.40;36.67;;;-0.30;99.90;;;;;;4997319;28;20092;-82
2023/01/26 01:21:46;;;;;;;93.57;37.00;;;-0.30;99.90;;;;;;5003560;28;20039;-82
2023/01/26 01:24:12;;;;;;;100.22;37.50;;;-0.30;99.90;;;;;;5018081;28;20100;-80
2023/01/26 01:26:39;;;;;;;94.47;36.95;;;-0.30;99.90;;;;;;4998946;28;20045;-81
2023/01/26 01:29:04;;;;;;;89.50;34.10;;;-0.30;99.90;;;;;;5018039;28;20392;-82
2023/01/26 01:31:30;;;;;;;95.53;36.00;;;-0.30;99.90;;;;;;4993635;28;20039;-82
2023/01/26 01:33:56;;;;;;;93.82;34.67;;;-0.30;99.90;;;;;;5010871;28;20038;-81
2023/01/26 01:36:22;;;;;;;93.28;34.15;;;-0.30;99.90;;;;;;5016726;28;20135;-81
2023/01/26 01:38:49;;;;;;;85.13;33.67;;;-0.30;99.90;;;;;;5015134;28;20045;-81
2023/01/26 01:41:17;;;;;;;91.57;34.60;;;-0.30;99.90;;;;;;4999198;28;20057;-82
2023/01/26 01:43:43;;;;;;;;;;;-0.30;99.90;;;;;;4994874;28;20556;-81
2023/01/26 01:46:34;;;;;;;84.82;31.70;;;-0.20;99.90;;;;;;4988078;28;19922;-81
2023/01/26 01:49:13;;;;;;;82.00;31.63;;;-0.20;99.90;;;;;;5015895;28;20046;-82
2023/01/26 01:51:53;;;;;;;81.53;32.20;;;-0.20;99.90;;;;;;5016577;28;20564;-82
2023/01/26 01:54:26;;;;;;;88.45;32.97;;;-0.20;99.90;;;;;;5019029;28;20061;-82
2023/01/26 01:56:56;;;;;;;87.00;32.70;;;-0.20;99.90;;;;;;5021781;28;20111;-82
2023/01/26 01:59:22;;;;;;;83.20;33.53;;;-0.20;99.90;;;;;;5018833;28;20412;-82
2023/01/26 02:01:50;;;;;;;82.22;31.73;;;-0.20;99.90;;;;;;5021021;28;20045;-82
2023/01/26 02:04:17;;;;;;;95.63;34.75;;;-0.20;99.90;;;;;;5011102;28;20104;-82
2023/01/26 02:06:50;;;;;;;86.28;32.80;;;-0.20;99.90;;;;;;5015539;28;20078;-82
2023/01/26 02:12:07;;;;;;;74.78;29.60;;;-0.10;99.90;;;;;;5007807;28;20050;-81
2023/01/26 02:14:33;;;;;;;78.63;30.77;;;-0.20;99.90;;;;;;5008396;28;20049;-80
2023/01/26 02:16:59;;;;;;;78.93;31.58;;;-0.20;99.90;;;;;;5019633;28;20042;-80
2023/01/26 02:19:34;;;;;;;79.50;29.02;;;-0.20;99.90;;;;;;4989003;28;20038;-81
2023/01/26 02:22:06;;;;;;;89.30;32.47;;;-0.20;99.90;;;;;;4984153;28;20429;-80
2023/01/26 02:24:36;;;;;;;84.63;32.35;;;-0.10;99.90;;;;;;4995545;28;20042;-80
2023/01/26 02:27:01;;;;;;;79.85;30.58;;;-0.10;99.90;;;;;;4999078;28;20052;-80
2023/01/26 02:29:27;;;;;;;85.45;30.90;;;-0.10;99.90;;;;;;5009295;28;20050;-81
2023/01/26 02:31:53;;;;;;;74.80;29.65;;;-0.10;99.90;;;;;;5000710;28;20042;-80
2023/01/26 02:34:19;;;;;;;82.30;31.00;;;-0.10;99.90;;;;;;5012380;28;20057;-80
2023/01/26 02:36:55;;;;;;;77.72;30.92;;;-0.10;99.90;;;;;;4972322;28;20504;-80
2023/01/26 02:39:50;;;;;;;78.10;29.42;;;-0.10;99.90;;;;;;5018256;28;20052;-80
2023/01/26 02:45:00;;;;;;;74.85;28.60;;;-0.10;99.90;;;;;;5005375;28;20053;-85
2023/01/26 02:47:28;;;;;;;82.60;29.17;;;0.00;99.90;;;;;;4970196;28;20052;-84
2023/01/26 02:49:54;;;;;;;;;;;0.20;99.90;;;;;;4978532;28;20045;-84
2023/01/26 02:52:22;;;;;;;77.68;25.88;;;0.00;99.90;;;;;;5005640;28;19961;-84
2023/01/26 02:57:35;;;;;;;74.55;26.23;;;0.00;99.90;;;;;;4996793;28;20519;-84
2023/01/26 03:00:04;;;;;;;72.88;25.35;;;0.20;99.90;;;;;;4991353;28;20112;-84
2023/01/26 03:02:32;;;;;;;73.57;26.90;;;0.10;99.90;;;;;;5005983;28;20204;-84
2023/01/26 03:04:58;;;;;;;74.80;24.73;;;0.10;99.90;;;;;;4978647;28;20483;-84
2023/01/26 03:07:24;;;;;;;59.25;22.98;;;0.20;99.90;;;;;;4999308;28;20039;-84
2023/01/26 03:09:50;;;;;;;58.42;21.85;;;0.10;99.90;;;;;;5003105;28;20057;-84
2023/01/26 03:12:15;;;;;;;57.17;21.35;;;0.10;99.90;;;;;;5003383;28;20105;-82
2023/01/26 03:14:41;;;;;;;57.50;21.02;;;0.10;99.90;;;;;;5005973;28;20034;-80
2023/01/26 03:17:06;;;;;;;60.13;20.27;;;0.20;99.90;;;;;;5001763;28;20043;-80
2023/01/26 03:27:48;;;;;;;49.45;17.83;;;0.20;99.90;;;;;;4988816;28;20086;-83
2023/01/26 03:30:17;;;;;;;45.75;17.98;;;0.20;99.90;;;;;;5009270;28;20038;-82
2023/01/26 03:32:42;;;;;;;43.35;17.23;;;0.20;99.90;;;;;;4987443;28;20515;-81
2023/01/26 03:35:14;;;;;;;47.55;18.95;;;0.20;99.90;;;;;;4965378;28;20074;-82
2023/01/26 03:37:43;;;;;;;49.80;18.67;;;0.20;99.90;;;;;;5005353;28;20108;-81
2023/01/26 03:56:37;;;;;;;37.22;15.88;;;0.20;99.90;;;;;;5010728;28;20041;-81
2023/01/26 03:59:08;;;;;;;47.33;16.00;;;0.20;99.90;;;;;;5010508;28;20042;-81
2023/01/26 04:01:37;;;;;;;42.60;16.20;;;0.20;99.90;;;;;;5010903;28;20046;-81
2023/01/26 04:09:35;;;;;;;37.45;13.80;;;0.30;99.90;;;;;;5011370;28;20050;-80
2023/01/26 04:12:01;;;;;;;37.65;15.57;;;0.20;99.90;;;;;;5009968;28;20042;-81
2023/01/26 04:22:46;;;;;;;33.60;14.40;;;0.30;99.90;;;;;;5006120;28;20053;-81
2023/01/26 04:25:15;;;;;;;34.53;13.95;;;0.30;99.90;;;;;;4996361;28;20046;-81
2023/01/26 04:27:42;;;;;;;37.97;14.90;;;0.30;99.90;;;;;;5009741;28;20053;-80
2023/01/26 04:30:11;;;;;;;39.90;14.05;;;0.30;99.90;;;;;;5013531;28;20034;-80
2023/01/26 04:32:36;;;;;;;34.15;12.93;;;0.30;99.90;;;;;;5010497;28;20496;-80
2023/01/26 04:35:03;;;;;;;34.53;13.80;;;0.30;99.90;;;;;;5016439;28;20038;-80
2023/01/26 04:37:29;;;;;;;34.30;13.35;;;0.40;99.90;;;;;;5016557;28;20042;-80
2023/01/26 04:39:55;;;;;;;28.13;12.32;;;0.40;99.90;;;;;;5010933;28;20125;-80
2023/01/26 04:42:23;;;;;;;33.28;12.93;;;0.40;99.90;;;;;;5000882;28;20050;-81
2023/01/26 04:44:49;;;;;;;29.17;12.63;;;0.40;99.90;;;;;;5007193;28;20068;-81
2023/01/26 04:47:15;;;;;;;31.02;11.80;;;0.40;99.90;;;;;;5005532;28;20034;-81
2023/01/26 04:49:40;;;;;;;26.63;11.45;;;0.40;99.90;;;;;;5006252;28;20044;-81
2023/01/26 04:52:06;;;;;;;30.20;12.02;;;0.40;99.90;;;;;;5006365;28;20113;-81
2023/01/26 04:54:31;;;;;;;26.17;11.02;;;0.40;99.90;;;;;;4987638;28;20038;-81
2023/01/26 04:56:57;;;;;;;27.60;11.40;;;0.40;99.90;;;;;;5020139;28;20079;-81
2023/01/26 04:59:23;;;;;;;26.00;10.80;;;0.40;99.90;;;;;;5007116;28;20034;-81
2023/01/26 05:01:48;;;;;;;30.35;11.70;;;0.40;99.90;;;;;;5020342;28;20481;-80
2023/01/26 05:04:14;;;;;;;25.38;10.57;;;0.40;99.90;;;;;;5014061;28;20046;-81
2023/01/26 05:06:41;;;;;;;29.08;10.98;;;0.40;99.90;;;;;;5016775;28;20037;-81
2023/01/26 05:09:07;;;;;;;23.48;10.20;;;0.40;99.90;;;;;;5018422;28;20084;-80
2023/01/26 05:11:33;;;;;;;23.88;10.18;;;;;;;;;;5017401;28;20046;-80
2023/01/26 05:13:59;;;;;;;26.33;10.70;;;0.50;99.90;;;;;;5018105;28;20057;-81
2023/01/26 05:16:25;;;;;;;21.13;9.55;;;0.40;99.90;;;;;;5015990;28;20034;-80
2023/01/26 05:18:50;;;;;;;25.58;10.13;;;0.40;99.90;;;;;;4993382;28;20041;-80
2023/01/26 05:21:16;;;;;;;26.73;10.73;;;0.40;99.90;;;;;;5008955;28;20045;-80
2023/01/26 05:23:41;;;;;;;21.98;9.73;;;0.40;99.90;;;;;;5015945;28;20034;-79
2023/01/26 05:26:07;;;;;;;26.40;10.40;;;0.50;99.90;;;;;;5014243;28;20038;-80
2023/01/26 05:28:34;;;;;;;22.60;9.60;;;0.50;99.90;;;;;;5015909;28;20037;-80
2023/01/26 05:30:59;;;;;;;24.80;9.50;;;0.50;99.90;;;;;;5013222;28;20096;-81
2023/01/26 05:33:25;;;;;;;20.08;8.73;;;0.50;99.90;;;;;;5020414;28;20038;-80
2023/01/26 05:35:52;;;;;;;18.77;9.10;;;0.50;99.90;;;;;;5009032;28;20037;-78
2023/01/26 05:38:18;;;;;;;18.70;8.82;;;0.50;99.90;;;;;;5017591;28;20043;-80
2023/01/26 05:40:44;;;;;;;19.40;8.43;;;0.50;99.90;;;;;;5024547;28;20045;-81
2023/01/26 05:43:11;;;;;;;19.45;8.45;;;0.50;99.90;;;;;;4986693;28;20599;-80
2023/01/26 05:45:37;;;;;;;21.25;8.38;;;0.50;99.90;;;;;;5023128;28;20158;-81
2023/01/26 05:48:03;;;;;;;17.50;8.40;;;0.50;99.90;;;;;;5016866;28;20097;-82
2023/01/26 05:50:29;;;;;;;22.00;8.95;;;0.50;99.90;;;;;;4996505;28;20072;-81
2023/01/26 05:52:55;;;;;;;18.45;8.48;;;0.50;99.90;;;;;;5017971;28;20046;-82
2023/01/26 05:55:21;;;;;;;19.65;8.52;;;0.50;99.90;;;;;;5015609;28;20397;-82
2023/01/26 05:57:47;;;;;;;20.05;8.60;;;0.50;99.90;;;;;;5008543;28;20049;-82
2023/01/26 06:00:13;;;;;;;18.38;8.10;;;0.50;99.90;;;;;;4968741;28;20038;-81
2023/01/26 06:02:40;;;;;;;19.85;8.65;;;0.50;99.90;;;;;;5005274;28;20077;-81
2023/01/26 06:05:06;;;;;;;17.15;8.02;;;0.50;99.90;;;;;;5008413;28;20034;-81
2023/01/26 06:07:32;;;;;;;22.27;8.63;;;0.60;99.90;;;;;;5008751;28;20042;-81
2023/01/26 06:09:57;;;;;;;17.63;8.75;;;0.50;99.90;;;;;;5007874;28;20057;-81
2023/01/26 06:12:23;;;;;;;20.58;8.82;;;0.50;99.90;;;;;;5002950;28;20450;-81
2023/01/26 06:14:49;;;;;;;26.00;8.85;;;0.50;99.90;;;;;;4989927;28;20053;-81
2023/01/26 06:17:16;;;;;;;19.98;8.88;;;0.50;99.90;;;;;;4992681;28;20042;-81
2023/01/26 06:19:43;;;;;;;19.42;8.55;;;0.50;99.90;;;;;;5008001;28;20046;-81
2023/01/26 06:22:10;;;;;;;17.48;8.65;;;0.60;99.90;;;;;;5008448;28;20041;-81
2023/01/26 06:24:36;;;;;;;18.60;8.63;;;0.60;99.90;;;;;;4992279;28;20372;-82
2023/01/26 06:27:02;;;;;;;20.95;9.68;;;0.50;99.90;;;;;;4979301;28;20056;-83
2023/01/26 06:29:28;;;;;;;20.50;9.00;;;0.50;99.90;;;;;;5007844;28;20037;-82
2023/01/26 06:31:54;;;;;;;27.17;10.20;;;0.60;99.90;;;;;;4999394;28;20473;-81
2023/01/26 06:34:20;;;;;;;21.33;9.48;;;0.60;99.90;;;;;;5017685;28;20049;-82
2023/01/26 06:36:46;;;;;;;23.52;10.40;;;0.60;99.90;;;;;;5017720;28;20180;-82
2023/01/26 06:39:12;;;;;;;24.85;10.70;;;0.60;99.90;;;;;;4982463;28;20069;-83
2023/01/26 06:41:38;;;;;;;20.08;10.32;;;0.60;99.90;;;;;;5012664;28;20034;-82
2023/01/26 06:44:04;;;;;;;22.15;10.68;;;0.60;99.90;;;;;;5008467;28;20042;-82
2023/01/26 06:46:30;;;;;;;25.38;11.07;;;0.60;99.90;;;;;;5014175;28;20404;-82
2023/01/26 06:48:56;;;;;;;24.42;10.60;;;0.60;99.90;;;;;;4997624;28;20048;-81
2023/01/26 06:51:42;;;;;;;21.92;10.00;;;0.60;99.90;;;;;;5007539;28;20518;-81
2023/01/26 06:54:12;;;;;;;24.25;10.52;;;0.60;99.90;;;;;;4994280;28;20053;-81
2023/01/26 06:56:38;;;;;;;22.58;9.93;;;;;;;;;;5012376;28;20046;-81
2023/01/26 06:59:04;;;;;;;27.98;10.45;;;0.60;99.90;;;;;;5006384;28;20385;-82
2023/01/26 07:01:35;;;;;;;21.73;10.30;;;0.70;99.90;;;;;;5009987;28;20034;-81
2023/01/26 07:04:00;;;;;;;29.83;11.32;;;0.60;99.90;;;;;;5006253;28;20046;-81
2023/01/26 07:06:26;;;;;;;32.55;11.85;;;0.60;99.90;;;;;;5008254;28;20072;-81
2023/01/26 07:08:52;;;;;;;32.33;11.95;;;0.60;99.90;;;;;;5010650;28;20046;-81
2023/01/26 07:11:18;;;;;;;31.00;11.57;;;0.70;99.90;;;;;;5010680;28;20045;-81
2023/01/26 07:13:44;;;;;;;29.70;11.52;;;0.60;99.90;;;;;;5006594;28;20123;-81
2023/01/26 07:16:12;;;;;;;24.38;10.75;;;0.70;99.90;;;;;;5007952;28;20127;-80
2023/01/26 07:18:38;;;;;;;35.83;12.35;;;0.70;99.90;;;;;;5003386;28;20042;-80
2023/01/26 07:21:13;;;;;;;36.13;11.73;;;0.70;99.90;;;;;;4984949;28;20129;-83
2023/01/26 07:23:39;;;;;;;34.08;12.48;;;0.70;99.90;;;;;;4985642;28;20133;-81
2023/01/26 07:26:05;;;;;;;38.03;12.23;;;0.70;99.90;;;;;;5013058;28;20037;-81
2023/01/26 07:28:33;;;;;;;40.25;13.63;;;0.70;99.90;;;;;;5009763;28;20038;-82
2023/01/26 07:31:00;;;;;;;44.45;13.23;;;0.70;99.90;;;;;;4995646;28;20049;-81
2023/01/26 07:33:27;;;;;;;42.87;13.53;;;0.70;99.90;;;;;;4983932;28;20072;-81
2023/01/26 07:35:54;;;;;;;44.43;13.33;;;0.70;99.90;;;;;;5000916;28;20054;-81
2023/01/26 07:38:19;;;;;;;37.85;14.20;;;0.70;99.90;;;;;;5017291;28;20045;-80
2023/01/26 07:40:45;;;;;;;46.17;14.68;;;0.80;99.90;;;;;;5013506;28;20457;-82
2023/01/26 07:43:12;;;;;;;53.42;16.27;;;0.70;99.90;;;;;;5012898;28;20491;-82
2023/01/26 07:45:38;;;;;;;42.28;14.98;;;0.80;99.90;;;;;;5015456;28;20488;-82
2023/01/26 07:48:03;;;;;;;54.65;15.20;;;0.70;99.90;;;;;;5014623;28;20069;-82
2023/01/26 07:50:29;;;;;;;56.97;16.80;;;0.70;99.90;;;;;;5013289;28;20047;-83
2023/01/26 07:52:55;;;;;;;52.67;17.52;;;0.80;99.90;;;;;;4988062;28;20105;-82
2023/01/26 07:55:24;;;;;;;49.13;16.30;;;0.80;99.90;;;;;;5012116;28;20045;-81
2023/01/26 07:57:50;;;;;;;54.58;16.90;;;0.80;99.90;;;;;;4989250;28;20045;-76
2023/01/26 08:00:17;;;;;;;57.25;17.55;;;;;;;;;;5008578;28;20111;-77
2023/01/26 08:02:42;;;;;;;67.00;18.38;;;0.90;99.90;;;;;;5009072;28;20042;-77
2023/01/26 08:05:08;;;;;;;68.18;18.05;;;0.80;99.90;;;;;;5008008;28;20329;-77
2023/01/26 08:07:34;;;;;;;65.82;18.40;;;0.90;99.90;;;;;;5010795;28;20089;-76
2023/01/26 08:10:00;;;;;;;62.72;18.55;;;0.90;99.90;;;;;;4993455;28;20088;-77
2023/01/26 08:12:26;;;;;;;65.80;18.83;;;0.90;99.90;;;;;;5011691;28;20049;-78
2023/01/26 08:14:51;;;;;;;89.88;21.38;;;0.90;99.90;;;;;;5007851;28;20054;-78
2023/01/26 08:17:17;;;;;;;68.28;20.33;;;1.00;99.90;;;;;;5011197;28;20433;-77
2023/01/26 08:19:46;;;;;;;90.43;22.20;;;1.00;99.90;;;;;;4992453;28;20089;-76
2023/01/26 08:22:12;;;;;;;96.35;22.25;;;1.00;99.90;;;;;;5011530;28;20114;-77
2023/01/26 08:24:38;;;;;;;101.18;21.38;;;1.00;99.90;;;;;;4989769;28;20187;-77
2023/01/26 08:27:03;;;;;;;74.82;22.02;;;1.10;99.90;;;;;;5007645;28;20541;-76
2023/01/26 08:29:29;;;;;;;87.80;21.83;;;1.10;99.90;;;;;;5003367;28;20288;-78
2023/01/26 08:31:55;;;;;;;74.93;21.25;;;1.00;99.90;;;;;;5010617;28;20085;-78
2023/01/26 08:34:21;;;;;;;88.72;22.77;;;1.00;99.90;;;;;;5008806;28;20327;-78
2023/01/26 08:36:47;;;;;;;89.88;22.95;;;1.10;99.90;;;;;;4988779;28;20053;-78
2023/01/26 08:39:13;;;;;;;104.40;22.80;;;1.10;99.90;;;;;;4995269;28;20042;-78
2023/01/26 08:41:38;;;;;;;101.80;23.60;;;1.10;99.90;;;;;;5009558;28;20041;-78
2023/01/26 08:44:05;;;;;;;97.03;22.95;;;1.20;99.90;;;;;;5007742;28;20038;-78
2023/01/26 08:46:31;;;;;;;88.50;22.73;;;;;;;;;;5004033;28;20144;-78
2023/01/26 08:48:57;;;;;;;97.53;23.25;;;1.20;99.90;;;;;;5006504;28;20049;-78
2023/01/26 08:51:22;;;;;;;78.43;22.92;;;1.20;99.90;;;;;;5007611;28;20376;-78
2023/01/26 08:53:48;;;;;;;76.80;25.38;;;1.30;99.90;;;;;;4993747;28;20393;-78
2023/01/26 08:56:14;;;;;;;101.40;24.60;;;1.30;99.90;;;;;;5016303;28;20049;-78
2023/01/26 08:58:39;;;;;;;74.43;23.83;;;1.30;99.90;;;;;;5004896;28;20058;-78
2023/01/26 09:01:06;;;;;;;70.82;24.00;;;1.30;99.90;;;;;;4994299;28;20072;-78
2023/01/26 09:03:32;;;;;;;75.38;23.48;;;1.40;99.90;;;;;;5015050;28;20404;-78
2023/01/26 09:05:59;;;;;;;75.60;24.30;;;1.40;99.90;;;;;;5015118;28;20046;-78
2023/01/26 09:08:25;;;;;;;81.85;24.92;;;1.40;99.90;;;;;;5007579;28;20058;-78
2023/01/26 09:10:51;;;;;;;83.80;25.38;;;1.40;99.90;;;;;;4996369;28;20125;-78
2023/01/26 09:13:16;;;;;;;90.32;26.15;;;1.40;99.90;;;;;;4988320;28;20047;-78
2023/01/26 09:15:42;;;;;;;99.70;24.33;;;1.40;99.90;;;;;;5009210;28;20049;-79
2023/01/26 09:18:09;;;;;;;68.10;22.70;;;1.40;99.90;;;;;;5005214;28;20487;-78
2023/01/26 09:20:37;;;;;;;86.63;22.90;;;1.50;99.90;;;;;;4976878;28;20069;-78
2023/01/26 09:23:03;;;;;;;118.95;23.17;;;1.40;99.90;;;;;;5009420;28;20053;-78
2023/01/26 09:25:29;;;;;;;171.80;24.65;;;1.50;99.90;;;;;;5009416;28;20046;-79
2023/01/26 09:27:55;;;;;;;210.32;24.20;;;1.40;99.90;;;;;;5008449;28;20045;-78
2023/01/26 09:30:23;;;;;;;81.78;22.75;;;1.50;99.90;;;;;;4991711;28;20049;-78
2023/01/26 09:32:49;;;;;;;95.50;19.70;;;1.50;99.90;;;;;;5007692;28;20173;-78
2023/01/26 09:35:15;;;;;;;129.05;17.83;;;1.50;99.90;;;;;;4989608;28;20045;-78
2023/01/26 09:37:44;;;;;;;131.23;17.60;;;1.50;99.90;;;;;;5010954;28;20040;-78
2023/01/26 09:40:22;;;;;;;114.40;17.77;;;1.60;99.90;;;;;;5007287;28;20041;-78
2023/01/26 09:43:13;;;;;;;97.15;17.00;;;1.60;99.90;;;;;;5007788;28;20391;-78
2023/01/26 09:46:05;;;;;;;148.27;18.10;;;1.70;99.90;;;;;;5008958;28;20116;-78
2023/01/26 09:48:41;;;;;;;88.57;16.58;;;1.80;99.90;;;;;;5010260;28;20069;-78
2023/01/26 09:51:23;;;;;;;130.73;17.85;;;1.90;99.90;;;;;;5003953;28;20081;-79
2023/01/26 09:53:54;;;;;;;122.28;16.65;;;2.00;99.90;;;;;;5012708;28;20397;-78
2023/01/26 09:56:24;;;;;;;93.03;15.27;;;2.00;99.90;;;;;;5006545;28;20052;-79
2023/01/26 09:59:06;;;;;;;81.72;14.48;;;2.10;99.90;;;;;;5006263;28;20511;-78
2023/01/26 10:01:40;;;;;;;142.02;16.65;;;2.20;99.90;;;;;;5010411;28;20038;-77
2023/01/26 10:04:21;;;;;;;105.90;16.20;;;2.20;99.90;;;;;;5007990;28;20092;-79
2023/01/26 10:06:48;;;;;;;97.25;16.63;;;2.30;99.90;;;;;;5008282;28;20133;-79
2023/01/26 10:09:23;;;;;;;84.15;14.45;;;2.40;99.90;;;;;;5008803;28;20054;-79
2023/01/26 10:12:00;;;;;;;94.75;14.98;;;2.40;99.90;;;;;;5005476;28;20460;-80
2023/01/26 10:14:39;;;;;;;117.05;16.23;;;2.50;99.90;;;;;;5014316;28;20096;-77
2023/01/26 10:17:09;;;;;;;88.82;13.95;;;2.60;99.90;;;;;;5010761;28;20041;-79
2023/01/26 10:19:50;;;;;;;90.03;14.68;;;;;;;;;;4978647;28;20097;-79
2023/01/26 10:22:39;;;;;;;84.72;13.38;;;2.60;99.90;;;;;;5011487;28;20441;-79
2023/01/26 10:25:16;;;;;;;80.88;14.02;;;2.50;99.90;;;;;;5009733;28;20109;-79
2023/01/26 10:27:44;;;;;;;60.63;12.35;;;2.50;99.90;;;;;;4986167;28;20050;-79
2023/01/26 10:30:18;;;;;;;73.53;13.80;;;2.60;99.90;;;;;;4991699;28;20038;-79
2023/01/26 10:32:46;;;;;;;43.20;12.45;;;2.70;99.90;;;;;;5009912;28;20038;-79
2023/01/26 10:35:18;;;;;;;63.53;13.82;;;2.80;99.90;;;;;;5008431;28;20396;-79
2023/01/26 10:37:44;;;;;;;45.22;13.65;;;2.90;99.90;;;;;;4988119;28;20050;-79
2023/01/26 10:40:10;;;;;;;32.00;13.30;;;2.90;99.90;;;;;;4986944;28;20048;-80
2023/01/26 10:42:38;;;;;;;29.92;13.50;;;3.10;99.90;;;;;;5009459;28;20420;-79
2023/01/26 10:45:26;;;;;;;34.78;13.20;;;3.10;99.90;;;;;;5012042;28;20045;-80
2023/01/26 10:48:22;;;;;;;29.88;12.13;;;3.30;99.90;;;;;;4992712;28;20140;-80
2023/01/26 10:50:49;;;;;;;26.17;9.38;;;3.40;99.90;;;;;;5008160;28;20088;-79
2023/01/26 10:53:24;;;;;;;30.88;10.25;;;3.70;99.90;;;;;;5009947;28;20674;-79
2023/01/26 10:56:11;;;;;;;37.80;9.23;;;4.00;99.90;;;;;;5005447;28;20526;-79
2023/01/26 10:58:50;;;;;;;34.83;8.00;;;4.30;99.90;;;;;;4985160;28;20400;-79
2023/01/26 11:01:21;;;;;;;28.70;8.52;;;4.40;99.90;;;;;;5006221;28;20120;-79
2023/01/26 11:04:16;;;;;;;32.08;8.27;;;4.70;99.90;;;;;;4991019;28;20408;-80
2023/01/26 11:06:42;;;;;;;29.40;8.73;;;4.70;99.90;;;;;;4994118;28;20695;-79
2023/01/26 11:09:13;;;;;;;28.58;8.00;;;4.80;99.90;;;;;;5017759;28;20065;-79
2023/01/26 11:11:40;;;;;;;31.38;8.95;;;4.90;99.90;;;;;;4991459;28;20045;-79
2023/01/26 11:14:15;;;;;;;29.42;7.47;;;5.00;99.90;;;;;;5012025;28;20037;-80
2023/01/26 11:17:13;;;;;;;31.95;7.97;;;5.20;99.90;;;;;;5009272;28;20030;-80
2023/01/26 11:19:55;;;;;;;26.23;7.38;;;5.30;99.90;;;;;;5011179;28;20061;-81
2023/01/26 11:22:50;;;;;;;27.00;6.28;;;5.40;99.90;;;;;;5010530;28;20119;-79
2023/01/26 11:25:27;;;;;;;24.27;6.35;;;5.60;99.90;;;;;;5011863;28;20046;-79
2023/01/26 11:28:31;;;;;;;29.17;6.80;;;5.60;99.90;;;;;;4991705;28;20046;-79
2023/01/26 11:31:29;;;;;;;21.38;4.43;;;5.80;99.90;;;;;;5011198;28;20068;-78
2023/01/26 11:34:19;;;;;;;22.27;5.72;;;6.00;99.90;;;;;;5011678;28;20062;-79
2023/01/26 11:37:20;;;;;;;29.45;6.38;;;6.10;99.90;;;;;;5009062;28;20066;-79
2023/01/26 11:40:03;;;;;;;26.55;6.75;;;6.20;99.90;;;;;;4989178;28;20426;-79
2023/01/26 11:42:45;;;;;;;37.22;6.00;;;6.30;99.90;;;;;;5009120;28;20046;-79
2023/01/26 11:45:26;;;;;;;22.85;5.90;;;6.30;99.90;;;;;;4995724;28;20046;-79
2023/01/26 11:47:58;;;;;;;27.33;5.22;;;6.40;99.90;;;;;;4991542;28;20539;-79
2023/01/26 11:50:27;;;;;;;27.67;5.53;;;6.50;99.90;;;;;;5014265;28;20064;-79
2023/01/26 11:53:14;;;;;;;18.88;4.80;;;6.60;99.90;;;;;;5014494;28;20531;-79
2023/01/26 11:55:58;;;;;;;27.83;6.20;;;6.60;99.90;;;;;;5013830;28;20105;-79
2023/01/26 11:58:39;;;;;;;28.17;5.78;;;6.70;99.90;;;;;;4989495;28;20340;-79
2023/01/26 12:01:21;;;;;;;32.13;5.75;;;6.70;99.90;;;;;;5010130;28;20050;-79
2023/01/26 12:03:49;;;;;;;21.77;5.50;;;6.90;99.90;;;;;;5012496;28;20045;-79
2023/01/26 12:06:55;;;;;;;25.95;5.65;;;6.90;99.90;;;;;;5009498;28;21224;-79
2023/01/26 12:09:36;;;;;;;23.80;4.75;;;7.00;99.90;;;;;;4909412;28;20184;-78
2023/01/26 12:12:23;;;;;;;17.95;3.30;;;7.10;99.90;;;;;;4924368;28;20142;-76
2023/01/26 12:15:09;;;;;;;28.90;4.30;;;7.10;99.90;;;;;;4934849;28;20063;-78
2023/01/26 12:18:04;;;;;;;35.97;5.80;;;7.20;99.90;;;;;;4949475;28;20039;-78
2023/01/26 12:20:40;;;;;;;26.73;4.20;;;7.30;99.90;;;;;;4910866;28;20091;-78
2023/01/26 12:23:18;;;;;;;26.65;4.40;;;7.40;99.90;;;;;;4932272;28;20059;-79
2023/01/26 12:25:50;;;;;;;;;;;7.40;99.90;;;;;;4939573;28;20044;-78
2023/01/26 12:28:34;;;;;;;17.38;3.58;;;7.50;99.90;;;;;;4926915;28;20425;-78
2023/01/26 12:31:07;;;;;;;14.57;3.25;;;7.50;99.90;;;;;;4936305;28;20043;-78
2023/01/26 12:33:34;;;;;;;22.63;3.38;;;7.40;99.90;;;;;;4941067;28;20067;-77
2023/01/26 12:36:25;;;;;;;15.07;3.37;;;7.60;99.90;;;;;;4943540;28;20549;-77
2023/01/26 12:39:24;;;;;;;26.13;4.18;;;7.60;99.90;;;;;;4946058;28;20307;-79
2023/01/26 12:42:11;;;;;;;23.73;3.38;;;7.60;99.90;;;;;;4951871;28;20119;-78
2023/01/26 12:44:48;;;;;;;19.57;4.60;;;7.60;99.90;;;;;;4968194;28;20121;-79
2023/01/26 12:47:35;;;;;;;13.15;2.92;;;7.70;99.90;;;;;;4979484;28;20039;-79
2023/01/26 12:50:30;;;;;;;22.23;3.83;;;7.70;99.90;;;;;;4961222;29;20059;-79
2023/01/26 12:53:17;;;;;;;19.95;2.95;;;7.90;99.90;;;;;;4956636;28;20047;-79
2023/01/26 12:56:00;;;;;;;18.08;2.97;;;7.80;99.90;;;;;;4980812;28;20134;-79
2023/01/26 12:58:34;;;;;;;21.85;3.17;;;7.80;99.90;;;;;;4980013;28;20382;-79
2023/01/26 13:01:02;;;;;;;21.67;3.72;;;7.80;99.90;;;;;;4961243;28;20070;-79
2023/01/26 13:03:38;;;;;;;16.38;2.10;;;7.90;99.90;;;;;;4967557;28;20424;-79
2023/01/26 13:06:09;;;;;;;13.88;2.65;;;7.80;99.90;;;;;;4979321;28;20078;-79
2023/01/26 13:08:35;;;;;;;17.25;2.90;;;7.80;99.90;;;;;;4993752;28;20064;-79
2023/01/26 13:11:03;;;;;;;20.67;3.10;;;7.80;99.90;;;;;;5020658;28;20054;-79
2023/01/26 13:13:50;;;;;;;18.35;2.78;;;7.80;99.90;;;;;;5001827;28;20049;-79
2023/01/26 13:16:16;;;;;;;16.35;2.90;;;7.80;99.90;;;;;;5013618;28;20464;-79
2023/01/26 13:18:53;;;;;;;13.80;2.47;;;7.80;99.90;;;;;;4996909;28;20054;-79
2023/01/26 13:21:41;;;;;;;16.35;2.72;;;7.80;99.90;;;;;;4978594;28;20144;-79
2023/01/26 13:24:32;;;;;;;13.02;2.30;;;7.70;99.90;;;;;;5013349;28;20069;-79
2023/01/26 13:26:59;;;;;;;9.30;1.73;;;7.70;99.90;;;;;;5003932;28;20065;-79
2023/01/26 13:29:26;;;;;;;12.98;2.47;;;7.70;99.90;;;;;;5015674;28;20052;-79
2023/01/26 13:31:56;;;;;;;11.65;2.28;;;7.70;99.90;;;;;;4996733;28;20045;-79
2023/01/26 13:34:27;;;;;;;11.15;2.25;;;7.70;99.90;;;;;;4994144;28;20042;-79
2023/01/26 13:36:59;;;;;;;11.73;2.05;;;7.70;99.90;;;;;;5018487;28;20061;-79
2023/01/26 13:39:32;;;;;;;9.82;1.83;;;7.70;99.90;;;;;;5014195;28;20129;-78
2023/01/26 13:41:57;;;;;;;15.15;1.70;;;7.70;99.90;;;;;;5012088;28;20038;-77